createdAt,value
2022-08-11T00:02:28.139Z,54.00
2022-08-11T00:04:57.383Z,54.00
2022-08-11T00:07:26.195Z,54.10
2022-08-11T00:09:56.519Z,54.10
2022-08-11T00:12:24.554Z,54.20
2022-08-11T00:14:59.591Z,54.20
2022-08-11T00:17:30.155Z,54.20
2022-08-11T00:20:13.260Z,54.20
2022-08-11T00:22:46.469Z,54.30
2022-08-11T00:25:18.137Z,54.20
2022-08-11T00:27:47.232Z,54.20
2022-08-11T00:30:16.104Z,54.20
2022-08-11T00:32:46.998Z,54.30
2022-08-11T00:35:51.760Z,54.30
2022-08-11T00:38:07.334Z,54.30
2022-08-11T00:40:42.786Z,54.30
2022-08-11T00:43:24.748Z,54.30
2022-08-11T00:46:14.926Z,54.40
2022-08-11T00:48:51.452Z,54.40
2022-08-11T00:52:05.136Z,54.40
2022-08-11T00:54:44.894Z,54.40
2022-08-11T00:57:42.771Z,54.40
2022-08-11T01:00:15.813Z,54.40
2022-08-11T01:03:02.718Z,54.40
2022-08-11T01:05:46.685Z,54.40
2022-08-11T01:08:45.984Z,54.50
2022-08-11T01:11:27.394Z,54.50
2022-08-11T01:14:34.137Z,54.40
2022-08-11T01:17:55.903Z,54.50
2022-08-11T01:21:01.832Z,54.50
2022-08-11T01:24:07.663Z,54.60
2022-08-11T01:27:19.193Z,54.50
2022-08-11T01:30:37.133Z,54.60
2022-08-11T01:33:50.424Z,54.60
2022-08-11T01:36:53.428Z,54.60
2022-08-11T01:39:48.329Z,54.60
2022-08-11T01:43:17.818Z,54.50
2022-08-11T01:45:51.496Z,54.60
2022-08-11T01:48:35.070Z,54.60
2022-08-11T01:51:16.919Z,54.60
2022-08-11T01:53:53.729Z,54.60
2022-08-11T01:56:33.497Z,54.60
2022-08-11T01:59:11.063Z,54.60
2022-08-11T02:01:50.330Z,54.60
2022-08-11T02:04:26.393Z,54.70
2022-08-11T02:06:59.333Z,54.70
2022-08-11T02:09:57.328Z,54.70
2022-08-11T02:12:43.827Z,54.70
2022-08-11T02:15:29.599Z,54.70
2022-08-11T02:18:07.378Z,54.70
2022-08-11T02:21:05.370Z,54.70
2022-08-11T02:24:04.192Z,54.70
2022-08-11T02:26:36.445Z,54.70
2022-08-11T02:29:11.460Z,54.70
2022-08-11T02:32:24.753Z,54.70
2022-08-11T02:35:02.291Z,54.80
2022-08-11T02:37:45.074Z,54.80
2022-08-11T02:40:31.129Z,54.80
2022-08-11T02:43:28.830Z,54.80
2022-08-11T02:46:06.617Z,54.80
2022-08-11T02:49:02.161Z,54.80
2022-08-11T02:51:40.188Z,55.40
2022-08-11T02:54:15.543Z,54.80
2022-08-11T02:56:52.200Z,54.80
2022-08-11T02:59:53.548Z,54.80
2022-08-11T03:02:45.778Z,54.80
2022-08-11T03:05:28.214Z,54.90
2022-08-11T03:08:09.421Z,54.90
2022-08-11T03:10:44.980Z,54.90
2022-08-11T03:13:37.714Z,54.90
2022-08-11T03:16:34.603Z,54.90
2022-08-11T03:19:12.388Z,54.90
2022-08-11T03:22:02.955Z,54.90
2022-08-11T03:24:43.265Z,54.90
2022-08-11T03:27:24.878Z,54.90
2022-08-11T03:30:06.403Z,54.90
2022-08-11T03:32:42.578Z,54.90
2022-08-11T03:35:11.546Z,54.90
2022-08-11T03:37:55.549Z,55.00
2022-08-11T03:41:02.461Z,54.90
2022-08-11T03:43:58.563Z,55.00
2022-08-11T03:46:44.718Z,54.90
2022-08-11T03:49:29.049Z,54.90
2022-08-11T03:52:06.185Z,55.00
2022-08-11T03:54:48.102Z,55.00
2022-08-11T03:57:49.515Z,55.00
2022-08-11T04:00:30.540Z,54.90
2022-08-11T04:03:31.279Z,54.90
2022-08-11T04:06:50.581Z,54.80
2022-08-11T04:10:07.375Z,54.70
2022-08-11T04:13:10.198Z,54.70
2022-08-11T04:16:15.816Z,54.60
2022-08-11T04:19:31.576Z,54.50
2022-08-11T04:22:23.836Z,54.50
2022-08-11T04:25:05.326Z,54.40
2022-08-11T04:28:01.219Z,54.40
2022-08-11T04:30:40.552Z,54.30
2022-08-11T04:33:41.774Z,54.20
2022-08-11T04:36:48.068Z,54.10
2022-08-11T04:39:34.931Z,54.00
2022-08-11T04:42:35.902Z,53.90
2022-08-11T04:45:36.436Z,53.80
2022-08-11T04:48:40.840Z,53.70
2022-08-11T04:51:50.931Z,53.60
2022-08-11T04:54:49.264Z,53.60
2022-08-11T04:57:41.296Z,53.40
2022-08-11T05:00:28.701Z,53.30
2022-08-11T05:03:35.250Z,53.20
2022-08-11T05:06:27.111Z,53.20
2022-08-11T05:09:13.814Z,53.10
2022-08-11T05:12:11.996Z,53.10
2022-08-11T05:15:08.189Z,53.00
2022-08-11T05:17:57.938Z,53.00
2022-08-11T05:20:44.777Z,52.80
2022-08-11T05:23:31.112Z,52.70
2022-08-11T05:26:47.981Z,52.70
2022-08-11T05:29:45.855Z,52.60
2022-08-11T05:32:36.428Z,52.60
2022-08-11T05:35:07.710Z,52.50
2022-08-11T05:37:57.169Z,52.50
2022-08-11T05:40:43.250Z,52.50
2022-08-11T05:44:21.113Z,52.40
2022-08-11T05:46:47.259Z,52.50
2022-08-11T05:49:33.990Z,52.50
2022-08-11T05:52:21.617Z,52.40
2022-08-11T05:55:21.250Z,52.40
2022-08-11T05:57:51.881Z,52.40
2022-08-11T06:00:20.768Z,52.40
2022-08-11T06:02:55.074Z,52.40
2022-08-11T06:05:38.396Z,52.40
2022-08-11T06:08:12.442Z,52.40
2022-08-11T06:10:42.258Z,52.30
2022-08-11T06:13:15.154Z,52.30
2022-08-11T06:15:47.309Z,52.30
2022-08-11T06:18:16.378Z,52.30
2022-08-11T06:20:54.053Z,52.30
2022-08-11T06:23:23.808Z,52.20
2022-08-11T06:25:52.942Z,52.20
2022-08-11T06:28:31.725Z,52.20
2022-08-11T06:31:00.988Z,52.20
2022-08-11T06:33:34.318Z,52.20
2022-08-11T06:36:07.449Z,52.20
2022-08-11T06:38:54.426Z,52.20
2022-08-11T06:41:31.588Z,52.30
2022-08-11T06:44:18.423Z,52.20
2022-08-11T06:46:50.860Z,52.20
2022-08-11T06:49:38.398Z,52.20
2022-08-11T06:52:34.073Z,52.30
2022-08-11T06:55:06.491Z,52.30
2022-08-11T06:57:55.469Z,52.30
2022-08-11T07:00:30.131Z,52.30
2022-08-11T07:03:04.112Z,52.30
2022-08-11T07:05:43.934Z,52.40
2022-08-11T07:09:04.692Z,52.40
2022-08-11T07:12:18.932Z,52.40
2022-08-11T07:15:09.613Z,52.40
2022-08-11T07:17:49.669Z,52.40
2022-08-11T07:20:36.618Z,52.40
2022-08-11T07:23:23.549Z,52.40
2022-08-11T07:26:12.659Z,52.40
2022-08-11T07:28:58.523Z,52.40
2022-08-11T07:31:33.272Z,52.30
2022-08-11T07:34:17.397Z,52.30
2022-08-11T07:36:51.037Z,52.40
2022-08-11T07:39:22.031Z,52.40
2022-08-11T07:41:53.738Z,52.40
2022-08-11T07:44:29.410Z,52.40
2022-08-11T07:47:18.750Z,52.40
2022-08-11T07:50:07.635Z,52.40
2022-08-11T07:52:39.751Z,52.40
2022-08-11T07:55:12.790Z,52.50
2022-08-11T07:58:16.947Z,52.50
2022-08-11T08:01:10.092Z,52.50
2022-08-11T08:03:58.027Z,52.40
2022-08-11T08:06:45.117Z,52.50
2022-08-11T08:09:31.711Z,52.50
2022-08-11T08:12:20.141Z,52.50
2022-08-11T08:15:07.482Z,52.60
2022-08-11T08:18:20.766Z,52.60
2022-08-11T08:20:49.660Z,52.60
2022-08-11T08:23:32.716Z,52.50
2022-08-11T08:26:02.265Z,52.50
2022-08-11T08:28:32.573Z,52.60
2022-08-11T08:31:01.320Z,52.60
2022-08-11T08:33:31.529Z,52.50
2022-08-11T08:36:12.514Z,52.60
2022-08-11T08:38:42.122Z,52.60
2022-08-11T08:41:16.471Z,52.50
2022-08-11T08:43:48.876Z,52.60
2022-08-11T08:46:22.963Z,52.60
2022-08-11T08:48:53.339Z,52.60
2022-08-11T08:52:02.439Z,52.60
2022-08-11T08:54:30.570Z,52.60
2022-08-11T08:56:58.948Z,52.60
2022-08-11T08:59:47.645Z,52.60
2022-08-11T09:02:19.857Z,52.60
2022-08-11T09:05:03.657Z,52.60
2022-08-11T09:07:39.094Z,52.60
2022-08-11T09:10:09.792Z,52.70
2022-08-11T09:12:40.079Z,52.70
2022-08-11T09:15:11.519Z,52.80
2022-08-11T09:17:44.918Z,52.80
2022-08-11T09:20:15.639Z,52.80
2022-08-11T09:24:02.126Z,52.80
2022-08-11T09:26:12.126Z,52.90
2022-08-11T09:28:40.423Z,52.90
2022-08-11T09:31:08.563Z,52.90
2022-08-11T09:33:38.003Z,52.90
2022-08-11T09:36:21.905Z,52.90
2022-08-11T09:39:08.510Z,52.80
2022-08-11T09:42:01.130Z,52.80
2022-08-11T09:44:43.203Z,52.80
2022-08-11T09:47:15.400Z,52.80
2022-08-11T09:49:46.124Z,52.80
2022-08-11T09:52:15.402Z,52.80
2022-08-11T09:54:47.941Z,52.80
2022-08-11T09:57:36.687Z,52.80
2022-08-11T10:00:12.195Z,52.80
2022-08-11T10:02:44.790Z,52.80
2022-08-11T10:05:35.816Z,52.70
2022-08-11T10:08:04.529Z,52.80
2022-08-11T10:10:36.707Z,52.70
2022-08-11T10:14:30.683Z,52.80
2022-08-11T10:16:15.675Z,52.70
2022-08-11T10:18:52.124Z,52.70
2022-08-11T10:21:29.010Z,52.70
2022-08-11T10:24:16.816Z,52.70
2022-08-11T10:26:55.356Z,52.80
2022-08-11T10:29:44.557Z,52.70
2022-08-11T10:32:57.302Z,52.80
2022-08-11T10:35:27.617Z,52.80
2022-08-11T10:38:15.653Z,52.80
2022-08-11T10:41:07.885Z,52.90
2022-08-11T10:44:02.107Z,52.90
2022-08-11T10:46:43.018Z,52.90
2022-08-11T10:49:11.139Z,52.90
2022-08-11T10:51:58.674Z,53.00
2022-08-11T10:54:46.142Z,53.00
2022-08-11T10:57:34.196Z,53.00
2022-08-11T11:00:02.379Z,53.10
2022-08-11T11:02:30.598Z,53.10
2022-08-11T11:05:03.304Z,53.10
2022-08-11T11:07:44.157Z,53.20
2022-08-11T11:10:13.799Z,53.20
2022-08-11T11:13:03.059Z,53.20
2022-08-11T11:15:50.783Z,53.30
2022-08-11T11:18:23.407Z,53.30
2022-08-11T11:20:57.578Z,53.30
2022-08-11T11:23:29.738Z,53.40
2022-08-11T11:26:27.587Z,53.40
2022-08-11T11:29:27.230Z,53.40
2022-08-11T11:32:17.523Z,53.50
2022-08-11T11:35:11.244Z,53.50
2022-08-11T11:37:41.615Z,53.60
2022-08-11T11:40:31.660Z,53.60
2022-08-11T11:43:02.554Z,53.60
2022-08-11T11:45:30.962Z,53.70
2022-08-11T11:48:00.222Z,53.70
2022-08-11T11:50:32.721Z,53.70
2022-08-11T11:53:02.262Z,53.70
2022-08-11T11:55:31.383Z,53.80
2022-08-11T11:58:19.414Z,53.80
2022-08-11T12:01:06.329Z,53.80
2022-08-11T12:03:35.349Z,53.80
2022-08-11T12:06:04.458Z,53.80
2022-08-11T12:08:32.886Z,53.90
2022-08-11T12:11:20.252Z,53.90
2022-08-11T12:13:53.487Z,53.90
2022-08-11T12:16:35.635Z,54.00
2022-08-11T12:19:07.142Z,54.00
2022-08-11T12:21:37.456Z,54.00
2022-08-11T12:24:29.220Z,54.10
2022-08-11T12:27:17.716Z,54.00
2022-08-11T12:29:55.011Z,54.10
2022-08-11T12:32:25.239Z,54.10
2022-08-11T12:34:53.583Z,54.20
2022-08-11T12:37:29.454Z,54.20
2022-08-11T12:40:42.648Z,54.20
2022-08-11T12:43:37.303Z,54.30
2022-08-11T12:46:10.968Z,54.30
2022-08-11T12:49:03.235Z,54.40
2022-08-11T12:52:01.374Z,54.40
2022-08-11T12:54:49.599Z,54.50
2022-08-11T12:57:39.217Z,54.50
2022-08-11T13:00:26.690Z,54.60
2022-08-11T13:03:14.272Z,54.60
2022-08-11T13:05:45.103Z,54.60
2022-08-11T13:08:14.960Z,54.70
2022-08-11T13:11:15.925Z,54.80
2022-08-11T13:13:53.438Z,54.80
2022-08-11T13:16:26.169Z,55.50
2022-08-11T13:18:56.300Z,54.80
2022-08-11T13:21:24.709Z,55.00
2022-08-11T13:24:00.349Z,54.90
2022-08-11T13:26:46.905Z,55.00
2022-08-11T13:29:19.592Z,55.00
2022-08-11T13:31:47.965Z,55.10
2022-08-11T13:34:18.543Z,55.10
2022-08-11T13:36:49.513Z,55.10
2022-08-11T13:39:18.517Z,55.10
2022-08-11T13:41:47.751Z,55.10
2022-08-11T13:44:24.847Z,55.10
2022-08-11T13:46:55.158Z,55.10
2022-08-11T13:49:25.233Z,55.10
2022-08-11T13:51:55.009Z,55.10
2022-08-11T13:54:27.802Z,55.10
2022-08-11T13:57:00.710Z,55.10
2022-08-11T13:59:31.114Z,55.10
2022-08-11T14:02:21.347Z,55.10
2022-08-11T14:04:58.391Z,55.10
2022-08-11T14:07:35.405Z,55.10
2022-08-11T14:10:06.941Z,55.10
2022-08-11T14:12:54.342Z,55.10
2022-08-11T14:15:25.724Z,55.10
2022-08-11T14:17:57.219Z,55.10
2022-08-11T14:20:46.640Z,55.10
2022-08-11T14:23:15.262Z,55.10
2022-08-11T14:26:04.565Z,55.10
2022-08-11T14:28:37.825Z,55.10
2022-08-11T14:31:12.848Z,55.10
2022-08-11T14:34:00.546Z,55.10
2022-08-11T14:36:33.842Z,55.10
2022-08-11T14:39:04.139Z,55.10
2022-08-11T14:42:11.398Z,55.10
2022-08-11T14:45:17.247Z,55.20
2022-08-11T14:47:48.904Z,55.20
2022-08-11T14:50:19.128Z,55.30
2022-08-11T14:52:51.427Z,55.30
2022-08-11T14:55:39.170Z,55.40
2022-08-11T14:58:10.867Z,55.30
2022-08-11T15:00:40.221Z,55.40
2022-08-11T15:03:11.441Z,55.40
2022-08-11T15:05:55.804Z,55.50
2022-08-11T15:08:47.782Z,55.50
2022-08-11T15:11:35.093Z,55.60
2022-08-11T15:14:06.841Z,55.60
2022-08-11T15:16:53.137Z,55.60
2022-08-11T15:19:21.826Z,55.60
2022-08-11T15:22:07.469Z,55.60
2022-08-11T15:24:37.365Z,55.60
2022-08-11T15:27:27.226Z,55.60
2022-08-11T15:30:32.049Z,55.60
2022-08-11T15:33:23.234Z,55.60
2022-08-11T15:36:10.002Z,55.70
2022-08-11T15:38:43.605Z,55.70
2022-08-11T15:41:35.826Z,55.60
2022-08-11T15:44:44.669Z,55.70
2022-08-11T15:47:15.106Z,55.60
2022-08-11T15:50:11.361Z,55.70
2022-08-11T15:52:37.851Z,55.70
2022-08-11T15:55:09.003Z,55.70
2022-08-11T15:57:57.882Z,55.70
2022-08-11T16:00:44.429Z,55.70
2022-08-11T16:04:06.390Z,55.80
2022-08-11T16:06:23.960Z,55.90
2022-08-11T16:08:56.223Z,55.90
2022-08-11T16:11:25.499Z,55.90
2022-08-11T16:14:13.182Z,55.90
2022-08-11T16:16:42.438Z,56.00
2022-08-11T16:19:11.334Z,56.00
2022-08-11T16:21:40.213Z,56.00
2022-08-11T16:26:30.343Z,56.20
2022-08-11T16:27:09.028Z,56.30
2022-08-11T16:29:43.875Z,56.20
2022-08-11T16:32:20.361Z,56.30
2022-08-11T16:35:13.558Z,56.20
2022-08-11T16:38:00.031Z,55.90
2022-08-11T16:40:29.430Z,55.70
2022-08-11T16:43:15.972Z,55.60
2022-08-11T16:46:04.242Z,55.50
2022-08-11T16:48:37.550Z,55.40
2022-08-11T16:51:07.041Z,55.40
2022-08-11T16:53:59.993Z,55.30
2022-08-11T16:56:28.141Z,55.30
2022-08-11T16:59:16.920Z,55.20
2022-08-11T17:01:52.866Z,55.70
2022-08-11T17:04:51.826Z,55.10
2022-08-11T17:07:43.126Z,55.20
2022-08-11T17:10:50.378Z,55.30
2022-08-11T17:13:26.655Z,55.50
2022-08-11T17:16:07.612Z,55.70
2022-08-11T17:18:42.939Z,55.90
2022-08-11T17:21:14.699Z,56.00
2022-08-11T17:23:49.756Z,56.10
2022-08-11T17:26:24.949Z,56.20
2022-08-11T17:28:57.819Z,56.40
2022-08-11T17:31:45.003Z,56.50
2022-08-11T17:34:32.317Z,56.50
2022-08-11T17:37:00.946Z,56.60
2022-08-11T17:39:31.759Z,56.60
2022-08-11T17:42:18.918Z,56.60
2022-08-11T17:45:05.966Z,56.60
2022-08-11T17:47:52.018Z,56.50
2022-08-11T17:50:21.874Z,56.30
2022-08-11T17:53:07.586Z,56.00
2022-08-11T17:55:55.746Z,55.80
2022-08-11T17:58:44.174Z,55.40
2022-08-11T18:01:13.412Z,55.10
2022-08-11T18:03:56.255Z,54.80
2022-08-11T18:06:33.667Z,54.50
2022-08-11T18:09:23.423Z,54.10
2022-08-11T18:12:12.812Z,53.90
2022-08-11T18:15:00.595Z,53.70
2022-08-11T18:17:45.889Z,53.60
2022-08-11T18:20:31.581Z,53.40
2022-08-11T18:23:21.923Z,53.30
2022-08-11T18:26:30.415Z,53.10
2022-08-11T18:29:17.602Z,53.00
2022-08-11T18:32:06.634Z,52.70
2022-08-11T18:34:58.525Z,52.60
2022-08-11T18:37:47.866Z,52.50
2022-08-11T18:40:38.633Z,52.50
2022-08-11T18:43:28.158Z,52.60
2022-08-11T18:46:19.636Z,52.50
2022-08-11T18:49:14.989Z,52.40
2022-08-11T18:52:06.198Z,52.50
2022-08-11T18:54:55.408Z,52.50
2022-08-11T18:57:53.936Z,52.40
2022-08-11T19:00:40.707Z,52.40
2022-08-11T19:03:28.561Z,52.40
2022-08-11T19:06:39.945Z,52.40
2022-08-11T19:09:27.344Z,52.40
2022-08-11T19:12:15.041Z,52.30
2022-08-11T19:15:03.661Z,52.30
2022-08-11T19:17:51.070Z,52.30
2022-08-11T19:20:39.077Z,52.30
2022-08-11T19:23:27.581Z,52.30
2022-08-11T19:26:14.010Z,52.30
2022-08-11T19:29:03.049Z,52.90
2022-08-11T19:31:50.447Z,52.10
2022-08-11T19:34:38.895Z,51.90
2022-08-11T19:37:25.916Z,51.80
2022-08-11T19:40:13.371Z,51.60
2022-08-11T19:43:01.846Z,51.50
2022-08-11T19:45:52.110Z,51.40
2022-08-11T19:48:41.349Z,51.40
2022-08-11T19:51:28.897Z,51.30
2022-08-11T19:54:15.898Z,51.40
2022-08-11T19:57:02.424Z,51.40
2022-08-11T19:59:49.500Z,51.50
2022-08-11T20:02:35.481Z,51.60
2022-08-11T20:05:22.707Z,51.50
2022-08-11T20:08:09.157Z,51.50
2022-08-11T20:10:55.567Z,51.60
2022-08-11T20:13:44.078Z,51.60
2022-08-11T20:16:31.331Z,51.60
2022-08-11T20:19:19.815Z,51.70
2022-08-11T20:22:14.429Z,51.70
2022-08-11T20:25:01.133Z,51.60
2022-08-11T20:27:46.754Z,51.60
2022-08-11T20:30:32.635Z,51.50
2022-08-11T20:33:19.233Z,51.50
2022-08-11T20:36:07.780Z,51.40
2022-08-11T20:38:55.263Z,51.40
2022-08-11T20:41:58.203Z,51.40
2022-08-11T20:44:48.040Z,51.30
2022-08-11T20:47:59.900Z,51.40
2022-08-11T20:50:41.406Z,51.40
2022-08-11T20:53:27.931Z,51.30
2022-08-11T20:56:17.181Z,51.40
2022-08-11T20:59:21.816Z,51.40
2022-08-11T21:02:10.577Z,51.40
2022-08-11T21:04:57.685Z,51.40
2022-08-11T21:07:57.141Z,51.50
2022-08-11T21:10:51.519Z,51.50
2022-08-11T21:13:42.153Z,51.50
2022-08-11T21:16:31.463Z,51.60
2022-08-11T21:20:01.778Z,51.60
2022-08-11T21:22:36.690Z,51.60
2022-08-11T21:25:25.456Z,51.70
2022-08-11T21:28:12.009Z,51.70
2022-08-11T21:30:58.785Z,51.70
2022-08-11T21:33:45.868Z,51.80
2022-08-11T21:36:32.879Z,51.80
2022-08-11T21:39:20.273Z,51.90
2022-08-11T21:42:12.165Z,51.90
2022-08-11T21:44:59.581Z,51.90
2022-08-11T21:47:48.409Z,51.90
2022-08-11T21:50:33.858Z,52.00
2022-08-11T21:53:19.953Z,52.00
2022-08-11T21:56:06.508Z,52.00
2022-08-11T21:58:52.814Z,52.10
2022-08-11T22:01:40.272Z,52.00
2022-08-11T22:04:28.041Z,52.10
2022-08-11T22:07:14.639Z,52.10
2022-08-11T22:10:00.154Z,52.10
2022-08-11T22:12:45.810Z,52.10
2022-08-11T22:15:31.769Z,52.10
2022-08-11T22:18:17.069Z,52.10
2022-08-11T22:21:03.936Z,52.10
2022-08-11T22:23:51.397Z,52.10
2022-08-11T22:26:39.751Z,52.10
2022-08-11T22:29:41.351Z,52.10
2022-08-11T22:32:32.771Z,52.10
2022-08-11T22:35:19.045Z,52.10
2022-08-11T22:38:06.722Z,52.10
2022-08-11T22:40:52.419Z,52.10
2022-08-11T22:43:37.946Z,52.10
2022-08-11T22:46:23.976Z,52.10
2022-08-11T22:49:11.476Z,52.10
2022-08-11T22:51:58.510Z,52.10
2022-08-11T22:54:46.087Z,52.10
2022-08-11T22:57:33.632Z,52.10
2022-08-11T23:00:20.046Z,52.10
2022-08-11T23:03:06.106Z,52.00
2022-08-11T23:05:56.715Z,52.10
2022-08-11T23:08:42.837Z,52.00
2022-08-11T23:11:57.659Z,52.10
2022-08-11T23:14:35.680Z,52.00
2022-08-11T23:17:21.318Z,52.10
2022-08-11T23:20:24.040Z,52.00
2022-08-11T23:23:13.697Z,52.10
2022-08-11T23:26:00.740Z,52.10
2022-08-11T23:28:51.608Z,52.10
2022-08-11T23:31:50.743Z,52.10
2022-08-11T23:35:02.684Z,52.00
2022-08-11T23:37:43.997Z,52.10
2022-08-11T23:40:29.996Z,52.10
2022-08-11T23:43:16.325Z,52.10
2022-08-11T23:46:03.258Z,52.10
2022-08-11T23:48:49.442Z,52.10
2022-08-11T23:51:40.545Z,52.10
2022-08-11T23:54:27.798Z,52.10
2022-08-11T23:57:13.853Z,52.10
2022-08-11T23:59:59.362Z,52.10
